createdAt,value
2023-01-10T00:00:25.196Z,100030.32
2023-01-10T00:05:31.105Z,100038.69
2023-01-10T00:10:36.875Z,100049.02
2023-01-10T00:15:42.588Z,100048.44
2023-01-10T00:20:52.259Z,100048.91
2023-01-10T00:25:57.713Z,100045.65
2023-01-10T00:31:05.207Z,100051.66
2023-01-10T00:36:11.821Z,100045.15
2023-01-10T00:41:35.807Z,100053.55
2023-01-10T00:46:41.272Z,100066.76
2023-01-10T00:51:47.366Z,100074.73
2023-01-10T00:56:52.885Z,100072.55
2023-01-10T01:01:58.427Z,100075.67
2023-01-10T01:07:04.429Z,100085.17
2023-01-10T01:12:09.985Z,100099.80
2023-01-10T01:17:15.883Z,100103.50
2023-01-10T01:22:21.497Z,100119.15
2023-01-10T01:27:26.875Z,100130.02
2023-01-10T01:32:32.250Z,100135.17
2023-01-10T01:37:37.783Z,100140.99
2023-01-10T01:42:44.396Z,100152.84
2023-01-10T01:48:10.993Z,100162.70
2023-01-10T01:53:25.116Z,100170.83
2023-01-10T01:58:33.546Z,100170.59
2023-01-10T02:03:40.224Z,100185.92
2023-01-10T02:08:50.392Z,100193.97
2023-01-10T02:13:58.159Z,100190.30
2023-01-10T02:19:05.459Z,100192.25
2023-01-10T02:24:47.503Z,100204.14
2023-01-10T02:30:28.991Z,100220.17
2023-01-10T02:35:43.497Z,100227.98
2023-01-10T02:40:54.758Z,100228.53
2023-01-10T02:46:06.263Z,100238.78
2023-01-10T02:51:17.599Z,100232.70
2023-01-10T02:56:41.405Z,100238.85
2023-01-10T03:01:52.940Z,100244.09
2023-01-10T03:07:18.534Z,100255.66
2023-01-10T03:12:38.728Z,100247.61
2023-01-10T03:17:47.318Z,100257.78
2023-01-10T03:22:56.081Z,100260.12
2023-01-10T03:28:10.337Z,100279.91
2023-01-10T03:33:18.607Z,100280.08
2023-01-10T03:38:32.837Z,100291.42
2023-01-10T03:44:05.031Z,100302.77
2023-01-10T03:49:12.619Z,100310.58
2023-01-10T03:54:19.120Z,100320.82
2023-01-10T03:59:27.793Z,100332.56
2023-01-10T04:04:33.190Z,100337.09
2023-01-10T04:09:38.851Z,100354.20
2023-01-10T04:14:46.019Z,100365.38
2023-01-10T04:19:51.548Z,100375.22
2023-01-10T04:24:56.982Z,100393.47
2023-01-10T04:30:02.458Z,100403.17
2023-01-10T04:35:09.138Z,100420.53
2023-01-10T04:40:16.607Z,100435.27
2023-01-10T04:45:22.195Z,100451.14
2023-01-10T04:50:28.586Z,100462.72
2023-01-10T04:55:35.278Z,100475.08
2023-01-10T05:00:41.271Z,100486.88
2023-01-10T05:05:47.046Z,100497.84
2023-01-10T05:10:52.442Z,100506.53
2023-01-10T05:15:58.642Z,100526.88
2023-01-10T05:21:07.340Z,100537.66
2023-01-10T05:26:18.718Z,100542.45
2023-01-10T05:31:24.290Z,100555.87
2023-01-10T05:36:29.835Z,100562.86
2023-01-10T05:41:35.364Z,100574.43
2023-01-10T05:46:40.748Z,100584.39
2023-01-10T05:51:46.140Z,100582.92
2023-01-10T05:56:51.529Z,100596.44
2023-01-10T06:01:57.314Z,100609.08
2023-01-10T06:07:02.793Z,100624.11
2023-01-10T06:12:08.351Z,100636.47
2023-01-10T06:17:14.137Z,100634.41
2023-01-10T06:22:19.972Z,100641.83
2023-01-10T06:27:25.527Z,100653.80
2023-01-10T06:32:30.986Z,100674.80
2023-01-10T06:37:36.542Z,100685.97
2023-01-10T06:42:42.380Z,100696.27
2023-01-10T06:47:47.936Z,100703.98
2023-01-10T06:52:58.819Z,100709.64
2023-01-10T06:58:05.256Z,100719.07
2023-01-10T07:03:11.291Z,100738.77
2023-01-10T07:08:16.928Z,100744.22
2023-01-10T07:13:22.387Z,100746.02
2023-01-10T07:18:27.874Z,100750.86
2023-01-10T07:23:33.977Z,100764.16
2023-01-10T07:28:40.031Z,100771.20
2023-01-10T07:33:45.889Z,100774.58
2023-01-10T07:38:51.342Z,100779.42
2023-01-10T07:43:56.793Z,100783.94
2023-01-10T07:49:02.290Z,100805.20
2023-01-10T07:54:07.864Z,100810.41
2023-01-10T07:59:13.315Z,100818.44
2023-01-10T08:04:18.783Z,100830.28
2023-01-10T08:09:24.245Z,100838.23
2023-01-10T08:14:29.763Z,100852.11
2023-01-10T08:19:35.349Z,100856.50
2023-01-10T08:24:40.739Z,100861.42
2023-01-10T08:29:46.433Z,100865.63
2023-01-10T08:34:51.842Z,100871.81
2023-01-10T08:39:57.223Z,100881.31
2023-01-10T08:45:02.757Z,100891.77
2023-01-10T08:50:09.155Z,100906.52
2023-01-10T08:55:14.682Z,100917.63
2023-01-10T09:00:20.967Z,100915.59
2023-01-10T09:05:28.140Z,100919.70
2023-01-10T09:10:34.246Z,100929.23
2023-01-10T09:15:39.981Z,100933.84
2023-01-10T09:20:46.847Z,100938.17
2023-01-10T09:25:55.860Z,100936.44
2023-01-10T09:31:03.320Z,100945.87
2023-01-10T09:36:10.383Z,100951.60
2023-01-10T09:41:19.108Z,100950.48
2023-01-10T09:46:53.210Z,100958.22
2023-01-10T09:51:59.915Z,100960.48
2023-01-10T09:57:05.958Z,100961.41
2023-01-10T10:02:26.042Z,100973.66
2023-01-10T10:07:31.481Z,100972.45
2023-01-10T10:12:58.247Z,100979.56
2023-01-10T10:18:21.737Z,100994.62
2023-01-10T10:23:38.984Z,100980.80
2023-01-10T10:29:06.514Z,100984.81
2023-01-10T10:34:34.834Z,100993.67
2023-01-10T10:39:43.266Z,101002.73
2023-01-10T10:44:57.942Z,100998.39
2023-01-10T10:50:18.368Z,101003.33
2023-01-10T10:55:26.870Z,101014.84
2023-01-10T11:00:32.763Z,101019.89
2023-01-10T11:05:44.469Z,101020.09
2023-01-10T11:10:58.702Z,101013.70
2023-01-10T11:16:06.783Z,101009.51
2023-01-10T11:21:20.365Z,101026.56
2023-01-10T11:26:32.975Z,101027.56
2023-01-10T11:31:39.485Z,101029.69
2023-01-10T11:37:04.823Z,101049.22
2023-01-10T11:42:30.024Z,101056.00
2023-01-10T11:47:41.685Z,101061.46
2023-01-10T11:52:45.950Z,101063.92
2023-01-10T11:57:57.268Z,101075.06
2023-01-10T12:03:03.286Z,101073.45
2023-01-10T12:08:10.771Z,101067.33
2023-01-10T12:13:17.984Z,101066.53
2023-01-10T12:18:24.637Z,101058.30
2023-01-10T12:23:33.209Z,101049.00
2023-01-10T12:28:40.213Z,101058.86
2023-01-10T12:33:48.513Z,101062.33
2023-01-10T12:39:05.972Z,101063.70
2023-01-10T12:44:17.483Z,101063.13
2023-01-10T12:49:28.768Z,101077.13
2023-01-10T12:54:34.684Z,101092.13
2023-01-10T12:59:43.189Z,101105.70
2023-01-10T13:04:52.086Z,101114.03
2023-01-10T13:09:57.924Z,101117.71
2023-01-10T13:15:06.348Z,101128.12
2023-01-10T13:20:26.883Z,101135.16
2023-01-10T13:25:36.066Z,101142.09
2023-01-10T13:30:42.206Z,101134.89
2023-01-10T13:35:49.263Z,101150.28
2023-01-10T13:41:05.981Z,101153.65
2023-01-10T13:46:23.649Z,101142.97
2023-01-10T13:51:29.935Z,101146.30
2023-01-10T13:56:41.254Z,101165.55
2023-01-10T14:02:11.338Z,101174.61
2023-01-10T14:07:31.994Z,101183.75
2023-01-10T14:12:42.986Z,101198.94
2023-01-10T14:18:09.155Z,101191.69
2023-01-10T14:23:23.731Z,101199.06
2023-01-10T14:28:34.986Z,101197.91
2023-01-10T14:33:43.960Z,101199.06
2023-01-10T14:38:51.657Z,101202.25
2023-01-10T14:44:13.870Z,101196.46
2023-01-10T14:49:22.369Z,101203.30
2023-01-10T14:54:29.463Z,101206.24
2023-01-10T14:59:37.002Z,101209.55
2023-01-10T15:04:45.465Z,101203.88
2023-01-10T15:09:57.423Z,101207.58
2023-01-10T15:15:14.978Z,101209.03
2023-01-10T15:20:22.672Z,101200.69
2023-01-10T15:25:38.831Z,101211.91
2023-01-10T15:30:45.108Z,101209.66
2023-01-10T15:35:50.656Z,101217.30
2023-01-10T15:41:02.765Z,101225.98
2023-01-10T15:46:12.961Z,101234.66
2023-01-10T15:51:33.203Z,101229.56
2023-01-10T15:56:53.255Z,101233.52
2023-01-10T16:02:21.348Z,101247.05
2023-01-10T16:07:33.211Z,101241.38
2023-01-10T16:12:59.135Z,101237.84
2023-01-10T16:18:04.943Z,101227.88
2023-01-10T16:23:17.497Z,101227.72
2023-01-10T16:28:26.712Z,101235.13
2023-01-10T16:33:32.237Z,101237.28
2023-01-10T16:38:37.719Z,101237.24
2023-01-10T16:43:43.274Z,101248.14
2023-01-10T16:48:50.186Z,101258.32
2023-01-10T16:53:58.741Z,101252.42
2023-01-10T16:59:07.153Z,101250.06
2023-01-10T17:04:16.971Z,101249.55
2023-01-10T17:09:28.670Z,101251.74
2023-01-10T17:14:36.676Z,101253.08
2023-01-10T17:19:42.929Z,101245.20
2023-01-10T17:24:49.416Z,101237.97
2023-01-10T17:29:57.336Z,101241.14
2023-01-10T17:35:15.669Z,101237.75
2023-01-10T17:40:22.698Z,101239.06
2023-01-10T17:45:28.947Z,101235.94
2023-01-10T17:51:02.430Z,101240.23
2023-01-10T17:56:11.889Z,101231.95
2023-01-10T18:01:25.407Z,101235.88
2023-01-10T18:06:31.371Z,101229.80
2023-01-10T18:11:39.081Z,101241.05
2023-01-10T18:16:47.659Z,101252.78
2023-01-10T18:21:53.201Z,101253.59
2023-01-10T18:26:58.610Z,101254.69
2023-01-10T18:32:04.163Z,101241.03
2023-01-10T18:37:11.373Z,101248.38
2023-01-10T18:42:17.501Z,101250.86
2023-01-10T18:47:24.505Z,101250.29
2023-01-10T18:52:30.232Z,101247.27
2023-01-10T18:57:35.698Z,101249.94
2023-01-10T19:02:41.284Z,101246.08
2023-01-10T19:07:47.289Z,101236.98
2023-01-10T19:12:52.821Z,101235.08
2023-01-10T19:17:58.279Z,101237.86
2023-01-10T19:23:03.732Z,101222.05
2023-01-10T19:28:09.198Z,101216.48
2023-01-10T19:33:14.712Z,101219.04
2023-01-10T19:38:20.249Z,101214.23
2023-01-10T19:43:26.141Z,101204.84
2023-01-10T19:48:31.678Z,101206.64
2023-01-10T19:53:44.496Z,101208.50
2023-01-10T19:58:51.674Z,101204.91
2023-01-10T20:04:02.704Z,101195.70
2023-01-10T20:09:10.383Z,101202.79
2023-01-10T20:14:18.958Z,101197.70
2023-01-10T20:19:24.632Z,101198.34
2023-01-10T20:24:30.171Z,101187.89
2023-01-10T20:29:36.164Z,101193.30
2023-01-10T20:34:43.775Z,101187.22
2023-01-10T20:39:49.245Z,101184.78
2023-01-10T20:44:54.834Z,101175.95
2023-01-10T20:50:00.471Z,101166.88
2023-01-10T20:55:06.694Z,101171.33
2023-01-10T21:00:13.373Z,101170.95
2023-01-10T21:05:18.820Z,101165.94
2023-01-10T21:10:24.453Z,101147.64
2023-01-10T21:15:30.139Z,101161.86
2023-01-10T21:20:35.940Z,101149.08
2023-01-10T21:25:41.854Z,101147.45
2023-01-10T21:30:47.960Z,101143.45
2023-01-10T21:36:00.590Z,101141.86
2023-01-10T21:41:09.536Z,101131.73
2023-01-10T21:46:15.004Z,101123.05
2023-01-10T21:51:20.548Z,101117.73
2023-01-10T21:56:26.190Z,101124.23
2023-01-10T22:01:31.770Z,101118.75
2023-01-10T22:06:37.265Z,101114.00
2023-01-10T22:11:42.721Z,101109.34
2023-01-10T22:16:48.173Z,101102.70
2023-01-10T22:21:53.631Z,101097.63
2023-01-10T22:27:00.210Z,101097.32
2023-01-10T22:32:05.992Z,101091.24
2023-01-10T22:37:11.444Z,101078.17
2023-01-10T22:42:16.883Z,101074.08
2023-01-10T22:47:22.354Z,101067.54
2023-01-10T22:52:27.813Z,101069.28
2023-01-10T22:57:33.369Z,101058.20
2023-01-10T23:02:38.988Z,101057.56
2023-01-10T23:07:44.461Z,101059.91
2023-01-10T23:12:50.611Z,101050.46
2023-01-10T23:17:56.281Z,101038.92
2023-01-10T23:23:01.813Z,101045.77
2023-01-10T23:28:07.355Z,101023.45
2023-01-10T23:33:12.796Z,101027.67
2023-01-10T23:38:20.322Z,101010.97
2023-01-10T23:43:26.182Z,101009.84
2023-01-10T23:48:31.741Z,100994.64
2023-01-10T23:53:37.259Z,100982.28
2023-01-10T23:58:42.830Z,100977.02
